createdAt,value
2022-08-01T00:00:19.419Z,15.50
2022-08-01T00:01:23.809Z,15.60
2022-08-01T00:02:28.285Z,15.60
2022-08-01T00:03:32.621Z,15.90
2022-08-01T00:04:37.089Z,15.80
2022-08-01T00:05:41.553Z,16.20
2022-08-01T00:06:45.941Z,15.80
2022-08-01T00:07:50.411Z,15.80
2022-08-01T00:08:54.829Z,16.20
2022-08-01T00:09:59.282Z,16.30
2022-08-01T00:11:03.772Z,16.60
2022-08-01T00:12:08.389Z,15.60
2022-08-01T00:13:12.644Z,16.00
2022-08-01T00:14:17.042Z,16.30
2022-08-01T00:15:21.462Z,16.30
2022-08-01T00:16:25.927Z,15.80
2022-08-01T00:17:30.300Z,16.10
2022-08-01T00:18:34.701Z,15.90
2022-08-01T00:19:39.123Z,16.10
2022-08-01T00:20:43.567Z,16.60
2022-08-01T00:21:52.015Z,16.30
2022-08-01T00:22:52.453Z,16.20
2022-08-01T00:23:56.881Z,16.20
2022-08-01T00:25:01.293Z,16.00
2022-08-01T00:26:05.683Z,15.60
2022-08-01T00:27:10.134Z,16.20
2022-08-01T00:28:14.595Z,15.70
2022-08-01T00:30:10.036Z,16.10
2022-08-01T00:30:23.378Z,17.20
2022-08-01T00:31:27.905Z,16.40
2022-08-01T00:32:32.313Z,16.80
2022-08-01T00:33:36.745Z,16.50
2022-08-01T00:34:41.232Z,16.90
2022-08-01T00:35:45.654Z,17.00
2022-08-01T00:36:50.105Z,17.20
2022-08-01T00:37:54.583Z,17.60
2022-08-01T00:38:59.002Z,16.70
2022-08-01T00:40:03.446Z,16.90
2022-08-01T00:41:07.854Z,17.20
2022-08-01T00:42:12.265Z,16.50
2022-08-01T00:43:16.707Z,17.00
2022-08-01T00:44:21.095Z,16.10
2022-08-01T00:45:25.595Z,17.40
2022-08-01T00:46:29.985Z,16.80
2022-08-01T00:47:34.427Z,16.50
2022-08-01T00:48:38.836Z,17.60
2022-08-01T00:49:43.236Z,17.60
2022-08-01T00:50:47.677Z,17.00
2022-08-01T00:51:52.175Z,18.50
2022-08-01T00:52:56.584Z,17.30
2022-08-01T00:54:00.987Z,17.60
2022-08-01T00:55:05.418Z,17.60
2022-08-01T00:56:09.857Z,17.40
2022-08-01T00:57:15.143Z,17.00
2022-08-01T00:58:18.692Z,17.10
2022-08-01T00:59:23.117Z,17.70
2022-08-01T01:00:27.664Z,18.20
2022-08-01T01:01:39.375Z,18.00
2022-08-01T01:02:36.409Z,17.20
2022-08-01T01:03:58.567Z,17.60
2022-08-01T01:04:45.268Z,17.80
2022-08-01T01:05:49.708Z,17.80
2022-08-01T01:06:54.138Z,18.60
2022-08-01T01:07:58.647Z,18.40
2022-08-01T01:09:03.415Z,17.90
2022-08-01T01:10:07.486Z,17.80
2022-08-01T01:11:11.967Z,17.40
2022-08-01T01:12:16.378Z,18.00
2022-08-01T01:13:20.790Z,17.90
2022-08-01T01:14:25.210Z,18.00
2022-08-01T01:15:29.638Z,17.80
2022-08-01T01:16:34.100Z,17.40
2022-08-01T01:17:50.195Z,17.60
2022-08-01T01:18:42.949Z,18.30
2022-08-01T01:19:47.372Z,17.50
2022-08-01T01:20:51.812Z,17.40
2022-08-01T01:21:56.254Z,18.20
2022-08-01T01:23:00.674Z,18.20
2022-08-01T01:24:05.082Z,17.30
2022-08-01T01:25:09.506Z,18.30
2022-08-01T01:26:13.952Z,18.80
2022-08-01T01:27:18.374Z,18.50
2022-08-01T01:28:22.791Z,18.60
2022-08-01T01:29:27.213Z,18.20
2022-08-01T01:30:31.634Z,17.90
2022-08-01T01:31:36.082Z,18.00
2022-08-01T01:32:40.535Z,18.30
2022-08-01T01:33:47.285Z,18.70
2022-08-01T01:34:49.386Z,18.60
2022-08-01T01:35:53.835Z,18.90
2022-08-01T01:36:58.252Z,18.40
2022-08-01T01:38:02.674Z,19.10
2022-08-01T01:39:07.113Z,18.60
2022-08-01T01:40:11.553Z,18.90
2022-08-01T01:41:15.993Z,18.70
2022-08-01T01:42:20.434Z,19.40
2022-08-01T01:43:29.067Z,19.00
2022-08-01T01:44:29.294Z,18.90
2022-08-01T01:45:33.735Z,19.70
2022-08-01T01:46:38.175Z,19.90
2022-08-01T01:47:42.614Z,17.10
2022-08-01T01:48:47.060Z,19.70
2022-08-01T01:49:51.465Z,17.90
2022-08-01T01:50:55.907Z,16.30
2022-08-01T01:52:02.623Z,17.50
2022-08-01T01:53:04.803Z,16.60
2022-08-01T01:54:09.229Z,17.10
2022-08-01T01:55:13.652Z,17.00
2022-08-01T01:56:18.088Z,17.50
2022-08-01T01:57:22.527Z,18.40
2022-08-01T01:58:26.941Z,18.00
2022-08-01T01:59:31.376Z,18.40
2022-08-01T02:00:35.806Z,18.30
2022-08-01T02:02:05.647Z,18.30
2022-08-01T02:02:44.774Z,20.80
2022-08-01T02:03:49.097Z,20.00
2022-08-01T02:04:53.546Z,20.30
2022-08-01T02:05:57.958Z,19.60
2022-08-01T02:07:02.398Z,20.00
2022-08-01T02:08:06.835Z,20.50
2022-08-01T02:09:11.242Z,21.20
2022-08-01T02:10:15.709Z,20.90
2022-08-01T02:11:20.163Z,21.70
2022-08-01T02:12:24.599Z,21.60
2022-08-01T02:13:29.098Z,21.50
2022-08-01T02:14:33.480Z,20.90
2022-08-01T02:15:37.908Z,21.50
2022-08-01T02:16:42.349Z,20.50
2022-08-01T02:17:46.761Z,19.60
2022-08-01T02:18:51.184Z,18.80
2022-08-01T02:19:55.600Z,18.20
2022-08-01T02:21:00.087Z,17.80
2022-08-01T02:22:04.807Z,16.90
2022-08-01T02:23:08.914Z,16.70
2022-08-01T02:24:13.351Z,16.10
2022-08-01T02:25:17.762Z,16.40
2022-08-01T02:26:22.183Z,15.30
2022-08-01T02:27:26.647Z,15.80
2022-08-01T02:28:31.082Z,16.10
2022-08-01T02:29:35.502Z,14.80
2022-08-01T02:30:39.937Z,15.30
2022-08-01T02:31:44.361Z,14.90
2022-08-01T02:32:48.814Z,15.90
2022-08-01T02:33:53.223Z,15.00
2022-08-01T02:34:57.666Z,15.20
2022-08-01T02:36:32.258Z,15.50
2022-08-01T02:37:06.525Z,15.10
2022-08-01T02:38:10.962Z,15.00
2022-08-01T02:39:15.388Z,15.50
2022-08-01T02:40:19.806Z,14.60
2022-08-01T02:41:25.890Z,14.80
2022-08-01T02:42:28.673Z,14.60
2022-08-01T02:43:33.112Z,15.20
2022-08-01T02:44:37.543Z,14.80
2022-08-01T02:45:41.961Z,15.60
2022-08-01T02:46:46.410Z,14.90
2022-08-01T02:47:50.826Z,15.40
2022-08-01T02:48:55.297Z,15.20
2022-08-01T02:49:59.690Z,14.50
2022-08-01T02:51:04.934Z,14.20
2022-08-01T02:52:08.926Z,13.90
2022-08-01T02:53:13.009Z,14.40
2022-08-01T02:54:17.449Z,15.30
2022-08-01T02:55:21.867Z,14.60
2022-08-01T02:56:26.296Z,14.50
2022-08-01T02:57:45.449Z,14.30
2022-08-01T02:58:35.169Z,14.10
2022-08-01T02:59:41.211Z,14.30
2022-08-01T03:00:44.028Z,13.60
2022-08-01T03:01:48.683Z,15.30
2022-08-01T03:02:52.906Z,14.60
2022-08-01T03:03:57.327Z,14.10
2022-08-01T03:05:01.768Z,13.80
2022-08-01T03:06:06.187Z,13.90
2022-08-01T03:07:10.638Z,14.00
2022-08-01T03:08:15.117Z,13.50
2022-08-01T03:09:19.508Z,13.20
2022-08-01T03:11:49.862Z,14.10
2022-08-01T03:12:54.289Z,13.60
2022-08-01T03:13:58.674Z,14.00
2022-08-01T03:15:03.081Z,13.80
2022-08-01T03:16:07.460Z,14.00
2022-08-01T03:17:11.862Z,14.50
2022-08-01T03:18:16.270Z,14.10
2022-08-01T03:19:20.660Z,14.60
2022-08-01T03:20:25.061Z,14.00
2022-08-01T03:21:29.453Z,14.70
2022-08-01T03:22:33.872Z,14.80
2022-08-01T03:23:38.625Z,14.20
2022-08-01T03:24:42.651Z,14.80
2022-08-01T03:25:47.046Z,14.80
2022-08-01T03:26:51.425Z,15.10
2022-08-01T03:27:55.852Z,15.70
2022-08-01T03:29:00.292Z,14.30
2022-08-01T03:30:04.683Z,14.70
2022-08-01T03:31:09.122Z,15.60
2022-08-01T03:32:13.513Z,14.90
2022-08-01T03:33:17.932Z,15.60
2022-08-01T03:34:22.339Z,14.30
2022-08-01T03:35:26.743Z,15.00
2022-08-01T03:36:31.133Z,15.40
2022-08-01T03:37:35.560Z,15.10
2022-08-01T03:38:39.985Z,14.60
2022-08-01T03:39:44.374Z,15.50
2022-08-01T03:40:48.796Z,15.10
2022-08-01T03:41:56.645Z,14.70
2022-08-01T03:42:57.595Z,15.80
2022-08-01T03:44:01.994Z,15.20
2022-08-01T03:45:06.405Z,15.30
2022-08-01T03:46:10.805Z,15.80
2022-08-01T03:47:15.202Z,16.00
2022-08-01T03:48:19.647Z,15.00
2022-08-01T03:49:24.121Z,15.80
2022-08-01T03:50:28.449Z,14.00
2022-08-01T03:51:32.846Z,15.60
2022-08-01T03:52:37.266Z,15.60
2022-08-01T03:53:42.603Z,16.20
2022-08-01T03:54:46.126Z,15.70
2022-08-01T03:55:50.516Z,15.70
2022-08-01T03:56:54.957Z,16.00
2022-08-01T03:57:59.356Z,14.40
2022-08-01T03:59:03.769Z,15.40
2022-08-01T04:00:08.178Z,15.40
2022-08-01T04:01:15.715Z,16.00
2022-08-01T04:02:16.972Z,15.50
2022-08-01T04:03:21.385Z,16.50
2022-08-01T04:04:25.793Z,16.60
2022-08-01T04:05:30.191Z,16.10
2022-08-01T04:06:34.599Z,15.90
2022-08-01T04:07:39.003Z,16.60
2022-08-01T04:08:43.422Z,17.30
2022-08-01T04:09:47.832Z,16.50
2022-08-01T04:10:52.263Z,16.40
2022-08-01T04:11:56.649Z,16.20
2022-08-01T04:13:01.060Z,16.80
2022-08-01T04:14:08.625Z,17.30
2022-08-01T04:15:09.881Z,17.20
2022-08-01T04:16:14.271Z,16.70
2022-08-01T04:17:18.682Z,16.20
2022-08-01T04:18:23.082Z,15.90
2022-08-01T04:19:27.510Z,16.80
2022-08-01T04:20:31.924Z,15.20
2022-08-01T04:21:36.312Z,15.90
2022-08-01T04:22:40.719Z,15.50
2022-08-01T04:23:45.132Z,14.80
2022-08-01T04:24:52.349Z,15.20
2022-08-01T04:25:53.921Z,14.40
2022-08-01T04:26:58.321Z,14.40
2022-08-01T04:28:02.711Z,14.30
2022-08-01T04:29:07.149Z,14.10
2022-08-01T04:30:11.544Z,14.10
2022-08-01T04:31:15.962Z,13.90
2022-08-01T04:32:20.353Z,13.90
2022-08-01T04:33:24.762Z,13.60
2022-08-01T04:34:29.174Z,13.60
2022-08-01T04:36:03.507Z,14.10
2022-08-01T04:36:37.976Z,13.80
2022-08-01T04:37:42.373Z,13.60
2022-08-01T04:38:46.798Z,13.90
2022-08-01T04:39:51.422Z,13.50
2022-08-01T04:40:55.593Z,13.40
2022-08-01T04:41:59.985Z,13.20
2022-08-01T04:43:04.376Z,13.70
2022-08-01T04:59:57.412Z,12.30
2022-08-01T05:01:01.912Z,14.20
2022-08-01T05:02:06.612Z,13.50
2022-08-01T05:03:10.777Z,14.20
2022-08-01T05:04:15.209Z,13.30
2022-08-01T05:05:19.681Z,14.30
2022-08-01T05:06:24.158Z,12.30
2022-08-01T05:07:28.528Z,13.10
2022-08-01T05:08:32.870Z,13.10
2022-08-01T05:09:37.421Z,12.90
2022-08-01T05:10:41.761Z,12.10
2022-08-01T05:11:46.140Z,11.70
2022-08-01T05:12:50.494Z,11.80
2022-08-01T05:13:54.868Z,11.20
2022-08-01T05:14:59.231Z,10.90
2022-08-01T05:16:03.580Z,11.30
2022-08-01T05:17:07.930Z,11.60
2022-08-01T05:18:12.279Z,10.80
2022-08-01T05:19:16.641Z,10.40
2022-08-01T05:20:21.024Z,10.90
2022-08-01T05:21:25.380Z,10.60
2022-08-01T05:22:29.729Z,10.80
2022-08-01T05:23:42.403Z,10.20
2022-08-01T05:24:38.481Z,10.20
2022-08-01T05:25:57.614Z,10.00
2022-08-01T05:26:47.203Z,10.30
2022-08-01T05:27:51.585Z,9.20
2022-08-01T05:28:55.936Z,9.30
2022-08-01T05:30:00.314Z,9.80
2022-08-01T05:31:04.677Z,9.80
2022-08-01T05:32:09.347Z,9.20
2022-08-01T05:33:13.384Z,9.90
2022-08-01T05:34:17.743Z,9.60
2022-08-01T05:35:22.153Z,9.60
2022-08-01T05:36:26.506Z,9.60
2022-08-01T05:37:30.865Z,9.30
2022-08-01T05:38:35.221Z,9.80
2022-08-01T05:39:39.605Z,8.80
2022-08-01T05:40:43.988Z,9.60
2022-08-01T05:41:48.364Z,8.90
2022-08-01T05:42:52.727Z,8.30
2022-08-01T05:43:57.097Z,8.10
2022-08-01T05:45:01.489Z,8.60
2022-08-01T05:46:05.837Z,8.60
2022-08-01T05:47:10.197Z,8.40
2022-08-01T05:48:14.563Z,8.30
2022-08-01T05:49:18.971Z,8.10
2022-08-01T05:50:23.315Z,8.10
2022-08-01T05:51:27.668Z,7.60
2022-08-01T05:52:32.036Z,7.40
2022-08-01T05:53:36.394Z,7.70
2022-08-01T05:54:40.810Z,7.60
2022-08-01T05:55:45.168Z,7.20
2022-08-01T05:56:49.518Z,7.20
2022-08-01T05:57:53.891Z,7.20
2022-08-01T05:58:58.238Z,6.90
2022-08-01T06:00:02.627Z,6.30
2022-08-01T06:01:06.986Z,6.80
2022-08-01T06:02:11.545Z,6.60
2022-08-01T06:03:15.701Z,6.50
2022-08-01T06:04:20.087Z,6.30
2022-08-01T06:05:24.463Z,6.50
2022-08-01T06:06:28.832Z,6.70
2022-08-01T06:07:33.195Z,7.10
2022-08-01T06:08:37.579Z,5.70
2022-08-01T06:09:41.928Z,5.80
2022-08-01T06:10:46.310Z,5.90
2022-08-01T06:11:50.659Z,5.90
2022-08-01T06:12:55.016Z,5.90
2022-08-01T06:13:59.379Z,6.10
2022-08-01T06:15:03.733Z,6.90
2022-08-01T06:16:08.139Z,6.20
2022-08-01T06:17:12.490Z,6.10
2022-08-01T06:18:16.853Z,5.90
2022-08-01T06:19:21.210Z,5.40
2022-08-01T06:20:25.610Z,5.20
2022-08-01T06:21:29.970Z,5.50
2022-08-01T06:22:34.332Z,5.40
2022-08-01T06:23:38.690Z,6.00
2022-08-01T06:24:43.053Z,6.00
2022-08-01T06:25:47.433Z,6.40
2022-08-01T06:26:51.797Z,6.80
2022-08-01T06:27:56.219Z,6.40
2022-08-01T06:29:00.520Z,6.40
2022-08-01T06:30:04.889Z,6.30
2022-08-01T06:31:09.263Z,6.50
2022-08-01T06:32:24.219Z,6.30
2022-08-01T06:33:17.961Z,6.30
2022-08-01T06:34:22.322Z,6.50
2022-08-01T06:35:26.693Z,5.80
2022-08-01T06:36:31.063Z,6.00
2022-08-01T06:37:35.401Z,6.10
2022-08-01T06:38:39.790Z,6.20
2022-08-01T06:39:44.161Z,5.60
2022-08-01T06:40:48.546Z,5.80
2022-08-01T06:41:52.874Z,5.50
2022-08-01T06:42:57.224Z,5.60
2022-08-01T06:44:01.572Z,5.40
2022-08-01T06:45:05.963Z,5.00
2022-08-01T06:46:10.284Z,5.00
2022-08-01T06:47:14.653Z,5.60
2022-08-01T06:48:19.004Z,5.40
2022-08-01T06:49:23.418Z,5.80
2022-08-01T06:50:27.702Z,5.30
2022-08-01T06:51:32.075Z,4.90
2022-08-01T06:52:36.408Z,5.40
2022-08-01T06:53:40.855Z,5.10
2022-08-01T06:54:45.274Z,5.20
2022-08-01T06:55:49.734Z,5.40
2022-08-01T06:56:54.216Z,5.60
2022-08-01T06:57:58.637Z,5.10
2022-08-01T06:59:03.074Z,4.60
2022-08-01T07:00:07.507Z,4.80
2022-08-01T07:01:12.014Z,4.60
2022-08-01T07:02:16.405Z,4.50
2022-08-01T07:03:20.835Z,4.00
2022-08-01T07:04:25.264Z,4.30
2022-08-01T07:05:29.715Z,4.30
2022-08-01T07:06:34.168Z,4.20
2022-08-01T07:07:38.643Z,4.30
2022-08-01T07:08:43.056Z,4.40
2022-08-01T07:09:47.487Z,4.80
2022-08-01T07:10:51.937Z,4.70
2022-08-01T07:11:56.365Z,4.90
2022-08-01T07:13:00.788Z,4.90
2022-08-01T07:14:05.207Z,5.10
2022-08-01T07:15:09.627Z,4.80
2022-08-01T07:16:14.088Z,4.80
2022-08-01T07:17:18.516Z,5.00
2022-08-01T07:18:22.955Z,5.00
2022-08-01T07:19:27.360Z,4.70
2022-08-01T07:20:36.254Z,4.70
2022-08-01T07:21:40.155Z,4.50
2022-08-01T07:22:40.669Z,4.40
2022-08-01T07:23:45.924Z,5.10
2022-08-01T07:24:49.520Z,5.10
2022-08-01T07:25:55.839Z,4.70
2022-08-01T07:26:58.377Z,4.40
2022-08-01T07:28:02.816Z,4.50
2022-08-01T07:29:07.233Z,4.30
2022-08-01T07:30:11.667Z,4.30
2022-08-01T07:31:16.080Z,4.00
2022-08-01T07:32:20.549Z,4.10
2022-08-01T07:33:24.974Z,4.10
2022-08-01T07:34:29.400Z,3.60
2022-08-01T07:35:33.831Z,3.60
2022-08-01T07:36:38.280Z,3.30
2022-08-01T07:37:48.546Z,3.20
2022-08-01T07:38:47.140Z,3.60
2022-08-01T07:39:51.562Z,3.00
2022-08-01T07:40:55.988Z,3.50
2022-08-01T07:42:07.383Z,3.80
2022-08-01T07:43:04.844Z,3.50
2022-08-01T07:44:09.284Z,3.90
2022-08-01T07:45:13.757Z,4.00
2022-08-01T07:46:18.175Z,3.00
2022-08-01T07:47:22.639Z,3.00
2022-08-01T07:48:27.054Z,3.00
2022-08-01T07:49:33.924Z,3.10
2022-08-01T07:50:35.916Z,2.80
2022-08-01T07:51:40.353Z,3.30
2022-08-01T07:52:44.802Z,3.50
2022-08-01T07:53:49.233Z,3.90
2022-08-01T07:54:53.654Z,4.00
2022-08-01T07:55:58.093Z,4.00
2022-08-01T07:57:02.546Z,4.20
2022-08-01T07:58:06.955Z,4.00
2022-08-01T07:59:11.385Z,4.10
2022-08-01T08:00:15.824Z,4.40
2022-08-01T08:01:20.305Z,3.90
2022-08-01T08:02:24.758Z,4.00
2022-08-01T08:03:29.124Z,4.60
2022-08-01T08:04:33.567Z,4.20
2022-08-01T08:05:58.145Z,4.40
2022-08-01T08:06:42.429Z,4.90
2022-08-01T08:07:46.868Z,4.20
2022-08-01T08:08:51.308Z,4.50
2022-08-01T08:09:55.725Z,3.70
2022-08-01T08:11:00.168Z,3.90
2022-08-01T08:12:04.856Z,4.30
2022-08-01T08:13:09.048Z,4.30
2022-08-01T08:14:13.467Z,4.20
2022-08-01T08:15:17.897Z,4.20
2022-08-01T08:16:23.087Z,4.30
2022-08-01T08:17:27.548Z,4.50
2022-08-01T08:18:32.097Z,4.30
2022-08-01T08:19:38.006Z,4.00
2022-08-01T08:20:40.971Z,3.20
2022-08-01T08:21:45.468Z,2.90
2022-08-01T08:22:49.917Z,3.10
2022-08-01T08:23:54.358Z,2.80
2022-08-01T08:25:00.764Z,3.00
2022-08-01T08:26:03.228Z,3.20
2022-08-01T08:27:07.680Z,3.80
2022-08-01T08:28:12.099Z,3.70
2022-08-01T08:29:16.538Z,3.00
2022-08-01T08:30:21.007Z,3.50
2022-08-01T08:31:52.102Z,3.20
2022-08-01T08:32:29.820Z,3.60
2022-08-01T08:33:34.242Z,2.70
2022-08-01T08:34:38.694Z,2.10
2022-08-01T08:35:53.692Z,2.00
2022-08-01T08:36:48.170Z,1.90
2022-08-01T08:37:52.013Z,2.00
2022-08-01T08:38:56.423Z,1.90
2022-08-01T08:40:00.863Z,1.80
2022-08-01T08:41:05.281Z,2.30
2022-08-01T08:42:09.720Z,2.90
2022-08-01T08:43:14.157Z,3.00
2022-08-01T08:44:18.599Z,3.20
2022-08-01T08:45:23.011Z,3.10
2022-08-01T08:46:28.190Z,4.10
2022-08-01T08:47:31.871Z,4.10
2022-08-01T08:48:36.314Z,4.10
2022-08-01T08:49:43.624Z,3.80
2022-08-01T08:50:46.003Z,3.60
2022-08-01T08:51:50.543Z,3.50
2022-08-01T08:52:55.010Z,4.10
2022-08-01T08:53:59.465Z,3.10
2022-08-01T08:55:03.893Z,2.90
2022-08-01T08:56:08.303Z,2.90
2022-08-01T08:57:12.773Z,2.30
2022-08-01T08:58:17.184Z,1.80
2022-08-01T08:59:21.627Z,2.40
2022-08-01T09:00:26.049Z,2.50
2022-08-01T09:01:30.483Z,2.10
2022-08-01T09:02:34.924Z,2.20
2022-08-01T09:03:39.414Z,1.90
2022-08-01T09:04:43.783Z,2.20
2022-08-01T09:05:48.202Z,1.80
2022-08-01T09:06:52.620Z,1.80
2022-08-01T09:07:57.064Z,2.00
2022-08-01T09:09:01.475Z,2.30
2022-08-01T09:10:05.895Z,1.80
2022-08-01T09:11:10.316Z,1.80
2022-08-01T09:12:14.766Z,2.30
2022-08-01T09:13:19.203Z,2.40
2022-08-01T09:14:23.617Z,2.10
2022-08-01T09:15:28.057Z,2.40
2022-08-01T09:16:32.477Z,2.30
2022-08-01T09:17:36.936Z,2.60
2022-08-01T09:18:41.357Z,2.60
2022-08-01T09:19:45.791Z,2.30
2022-08-01T09:20:50.209Z,2.40
2022-08-01T09:21:54.636Z,2.60
2022-08-01T09:22:59.086Z,2.20
2022-08-01T09:24:03.506Z,2.10
2022-08-01T09:25:07.943Z,1.90
2022-08-01T09:26:12.348Z,1.90
2022-08-01T09:27:16.787Z,2.00
2022-08-01T09:28:21.199Z,2.00
2022-08-01T09:29:37.577Z,1.90
2022-08-01T09:30:30.049Z,1.80
2022-08-01T09:31:38.157Z,2.00
2022-08-01T09:32:38.939Z,1.70
2022-08-01T09:33:43.349Z,1.90
2022-08-01T09:34:47.778Z,1.60
2022-08-01T09:35:52.204Z,1.80
2022-08-01T09:36:56.655Z,1.60
2022-08-01T09:38:01.090Z,1.50
2022-08-01T09:39:05.524Z,1.50
2022-08-01T09:40:09.959Z,1.40
2022-08-01T09:41:14.412Z,1.30
2022-08-01T09:42:18.899Z,0.90
2022-08-01T09:43:23.336Z,1.10
2022-08-01T09:44:41.373Z,0.90
2022-08-01T09:45:41.701Z,1.20
2022-08-01T09:46:36.588Z,0.80
2022-08-01T09:47:41.031Z,0.90
2022-08-01T09:48:45.461Z,0.80
2022-08-01T09:49:52.189Z,0.70
2022-08-01T09:50:54.322Z,0.70
2022-08-01T09:52:00.876Z,0.70
2022-08-01T09:53:03.372Z,1.00
2022-08-01T09:54:07.772Z,0.80
2022-08-01T09:55:12.192Z,0.90
2022-08-01T09:56:16.616Z,0.90
2022-08-01T09:57:21.013Z,1.20
2022-08-01T09:58:25.442Z,1.10
2022-08-01T09:59:41.044Z,0.90
2022-08-01T10:00:45.171Z,1.10
2022-08-01T10:01:38.776Z,1.20
2022-08-01T10:02:43.183Z,1.00
2022-08-01T10:03:47.715Z,1.30
2022-08-01T10:04:52.792Z,1.30
2022-08-01T10:05:56.483Z,1.20
2022-08-01T10:07:00.905Z,1.40
2022-08-01T10:08:08.226Z,1.40
2022-08-01T10:09:09.756Z,1.20
2022-08-01T10:10:14.663Z,1.40
2022-08-01T10:11:18.613Z,1.20
2022-08-01T10:12:23.026Z,1.20
2022-08-01T10:13:27.454Z,1.20
2022-08-01T10:14:31.900Z,1.30
2022-08-01T10:15:36.727Z,1.20
2022-08-01T10:16:40.717Z,1.00
2022-08-01T10:17:50.649Z,1.10
2022-08-01T10:18:49.977Z,1.20
2022-08-01T10:19:54.385Z,1.10
2022-08-01T10:20:58.798Z,0.90
2022-08-01T10:22:03.207Z,1.20
2022-08-01T10:23:07.656Z,1.00
2022-08-01T10:24:12.067Z,1.10
2022-08-01T10:25:16.477Z,1.00
2022-08-01T10:26:20.887Z,1.00
2022-08-01T10:27:38.095Z,0.90
2022-08-01T10:28:29.717Z,1.00
2022-08-01T10:29:46.674Z,0.60
2022-08-01T10:30:38.537Z,0.80
2022-08-01T10:31:42.948Z,0.90
2022-08-01T10:32:50.513Z,0.90
2022-08-01T10:33:53.163Z,1.00
2022-08-01T10:34:56.199Z,0.80
2022-08-01T10:36:00.601Z,0.80
2022-08-01T10:37:05.590Z,1.00
2022-08-01T10:38:10.903Z,0.90
2022-08-01T10:39:13.873Z,0.80
2022-08-01T10:40:29.991Z,0.80
2022-08-01T10:41:22.710Z,0.80
2022-08-01T10:42:27.121Z,0.80
2022-08-01T10:43:31.549Z,0.70
2022-08-01T10:44:35.970Z,0.80
2022-08-01T10:45:40.378Z,0.70
2022-08-01T10:46:46.496Z,0.60
2022-08-01T10:47:49.782Z,0.70
2022-08-01T10:48:53.752Z,0.60
2022-08-01T10:49:58.102Z,0.80
2022-08-01T10:51:02.510Z,0.60
2022-08-01T10:52:06.920Z,0.70
2022-08-01T10:53:15.871Z,0.60
2022-08-01T10:54:15.798Z,0.60
2022-08-01T10:55:20.200Z,0.60
2022-08-01T10:56:26.862Z,0.80
2022-08-01T10:57:29.011Z,0.70
2022-08-01T10:58:38.020Z,0.80
2022-08-01T10:59:51.112Z,0.70
2022-08-01T11:00:42.244Z,0.70
2022-08-01T11:01:46.687Z,1.00
2022-08-01T11:02:51.063Z,0.80
2022-08-01T11:03:57.767Z,0.60
2022-08-01T11:04:59.924Z,0.70
2022-08-01T11:06:04.353Z,1.10
2022-08-01T11:07:10.068Z,1.00
2022-08-01T11:08:13.240Z,1.00
2022-08-01T11:09:17.675Z,1.00
2022-08-01T11:10:23.671Z,1.00
2022-08-01T11:11:26.494Z,1.20
2022-08-01T11:12:30.905Z,1.30
2022-08-01T11:13:35.334Z,1.30
2022-08-01T11:14:55.168Z,1.30
2022-08-01T11:15:50.085Z,1.20
2022-08-01T11:16:48.596Z,1.10
2022-08-01T11:17:54.535Z,1.20
2022-08-01T11:18:57.430Z,1.10
2022-08-01T11:20:01.837Z,1.30
2022-08-01T11:21:57.852Z,0.90
2022-08-01T11:22:10.626Z,1.20
2022-08-01T11:23:15.065Z,1.30
2022-08-01T11:24:19.450Z,1.10
2022-08-01T11:26:03.482Z,1.20
2022-08-01T11:26:28.988Z,1.10
2022-08-01T11:27:33.537Z,1.20
2022-08-01T11:28:37.138Z,1.20
2022-08-01T11:29:41.529Z,1.50
2022-08-01T11:30:45.917Z,1.30
2022-08-01T11:31:50.339Z,1.30
2022-08-01T11:33:10.454Z,1.20
2022-08-01T11:34:03.236Z,1.40
2022-08-01T11:35:03.588Z,1.50
2022-08-01T11:36:07.992Z,1.50
2022-08-01T11:37:12.680Z,1.60
2022-08-01T11:38:16.788Z,1.60
2022-08-01T11:39:21.209Z,1.30
2022-08-01T11:40:25.621Z,1.30
2022-08-01T11:41:38.029Z,1.10
2022-08-01T11:42:34.427Z,1.10
2022-08-01T11:43:38.819Z,1.00
2022-08-01T11:44:43.261Z,1.20
2022-08-01T11:45:47.672Z,0.90
2022-08-01T11:46:52.080Z,1.00
2022-08-01T11:47:56.493Z,1.40
2022-08-01T11:49:00.959Z,1.10
2022-08-01T11:50:05.341Z,1.10
2022-08-01T11:51:09.731Z,1.00
2022-08-01T11:52:14.124Z,1.00
2022-08-01T11:53:18.534Z,1.20
2022-08-01T11:54:35.449Z,1.10
2022-08-01T11:55:27.351Z,1.10
2022-08-01T11:56:31.752Z,1.10
2022-08-01T11:57:36.254Z,0.90
2022-08-01T11:58:40.540Z,1.00
2022-08-01T11:59:59.844Z,1.00
2022-08-01T12:00:49.383Z,0.90
2022-08-01T12:01:53.799Z,0.90
2022-08-01T12:02:59.057Z,1.00
2022-08-01T12:04:02.595Z,1.20
2022-08-01T12:05:08.230Z,1.00
2022-08-01T12:06:11.412Z,1.00
2022-08-01T12:07:15.823Z,1.10
2022-08-01T12:08:20.214Z,1.10
2022-08-01T12:09:24.641Z,0.90
2022-08-01T12:10:29.025Z,1.20
2022-08-01T12:11:37.295Z,0.80
2022-08-01T12:12:37.803Z,0.90
2022-08-01T12:13:42.201Z,0.70
2022-08-01T12:14:46.614Z,0.70
2022-08-01T12:15:56.322Z,0.90
2022-08-01T12:16:56.024Z,0.90
2022-08-01T12:18:00.429Z,1.30
2022-08-01T12:19:04.799Z,1.20
2022-08-01T12:20:09.317Z,0.80
2022-08-01T12:21:13.557Z,1.10
2022-08-01T12:22:17.906Z,1.20
2022-08-01T12:23:22.252Z,1.30
2022-08-01T12:24:26.587Z,1.30
2022-08-01T12:25:30.980Z,1.20
2022-08-01T12:26:35.378Z,1.20
2022-08-01T12:27:39.777Z,1.40
2022-08-01T12:28:44.193Z,1.50
2022-08-01T12:29:48.618Z,1.50
2022-08-01T12:30:53.009Z,1.60
2022-08-01T12:31:57.408Z,1.40
2022-08-01T12:33:01.807Z,1.40
2022-08-01T12:34:06.219Z,1.50
2022-08-01T12:35:12.348Z,1.60
2022-08-01T12:36:15.048Z,1.70
2022-08-01T12:37:19.446Z,1.50
2022-08-01T12:38:23.839Z,1.60
2022-08-01T12:39:28.248Z,1.80
2022-08-01T12:40:32.674Z,1.30
2022-08-01T12:41:37.068Z,1.30
2022-08-01T12:42:41.472Z,1.00
2022-08-01T12:43:45.888Z,1.00
2022-08-01T12:44:50.314Z,1.00
2022-08-01T12:45:57.289Z,0.90
2022-08-01T12:46:59.110Z,0.70
2022-08-01T12:48:03.619Z,0.60
2022-08-01T12:49:08.077Z,0.70
2022-08-01T12:50:12.442Z,0.60
2022-08-01T12:51:16.832Z,1.00
2022-08-01T12:52:21.249Z,0.40
2022-08-01T12:53:25.671Z,0.70
2022-08-01T12:54:30.082Z,0.50
2022-08-01T12:55:34.859Z,0.80
2022-08-01T12:56:38.892Z,0.60
2022-08-01T12:57:43.293Z,0.80
2022-08-01T12:58:47.682Z,0.80
2022-08-01T12:59:52.090Z,0.70
2022-08-01T13:00:56.531Z,0.80
2022-08-01T13:02:00.949Z,0.60
2022-08-01T13:03:05.252Z,0.80
2022-08-01T13:04:09.644Z,0.70
2022-08-01T13:05:14.075Z,0.90
2022-08-01T13:06:18.443Z,1.00
2022-08-01T13:07:22.842Z,1.00
2022-08-01T13:08:27.216Z,1.10
2022-08-01T13:09:31.586Z,0.90
2022-08-01T13:10:36.005Z,1.00
2022-08-01T13:11:56.192Z,1.00
2022-08-01T13:12:44.766Z,1.20
2022-08-01T13:13:49.162Z,1.00
2022-08-01T13:14:53.534Z,1.20
2022-08-01T13:15:58.102Z,1.20
2022-08-01T13:17:02.335Z,1.10
2022-08-01T13:18:06.728Z,1.10
2022-08-01T13:19:11.105Z,1.30
2022-08-01T13:20:15.527Z,1.10
2022-08-01T13:21:19.907Z,1.20
2022-08-01T13:22:24.296Z,1.60
2022-08-01T13:24:02.688Z,1.30
2022-08-01T13:24:33.088Z,1.60
2022-08-01T13:25:37.496Z,1.70
2022-08-01T13:26:41.885Z,1.70
2022-08-01T13:27:53.598Z,2.00
2022-08-01T13:28:50.675Z,2.00
2022-08-01T13:29:55.067Z,1.80
2022-08-01T13:30:59.468Z,1.80
2022-08-01T13:32:04.236Z,1.70
2022-08-01T13:33:08.249Z,1.60
2022-08-01T13:34:12.644Z,1.60
2022-08-01T13:35:17.100Z,1.40
2022-08-01T13:36:28.228Z,1.90
2022-08-01T13:37:25.878Z,1.80
2022-08-01T13:38:30.259Z,1.80
2022-08-01T13:39:34.670Z,1.70
2022-08-01T13:40:39.071Z,1.60
2022-08-01T13:41:43.473Z,1.70
2022-08-01T13:42:47.875Z,1.60
2022-08-01T13:43:58.149Z,1.10
2022-08-01T13:44:56.674Z,0.70
2022-08-01T13:46:01.099Z,0.70
2022-08-01T13:47:15.537Z,0.60
2022-08-01T13:48:13.181Z,0.70
2022-08-01T13:49:16.381Z,0.70
2022-08-01T13:50:18.672Z,0.60
2022-08-01T13:51:23.080Z,0.60
2022-08-01T13:52:27.474Z,0.70
2022-08-01T13:53:31.893Z,0.80
2022-08-01T13:54:36.283Z,0.70
2022-08-01T13:55:40.712Z,0.70
2022-08-01T13:56:45.110Z,0.80
2022-08-01T13:57:49.513Z,0.60
2022-08-01T13:58:53.911Z,0.50
2022-08-01T13:59:58.312Z,0.60
2022-08-01T14:01:02.802Z,0.60
2022-08-01T14:02:07.523Z,0.70
2022-08-01T14:03:11.539Z,0.80
2022-08-01T14:04:15.915Z,0.40
2022-08-01T14:05:20.329Z,0.80
2022-08-01T14:06:24.742Z,0.50
2022-08-01T14:07:29.143Z,0.50
2022-08-01T14:08:33.534Z,0.50
2022-08-01T14:09:37.972Z,0.40
2022-08-01T14:10:42.354Z,0.70
2022-08-01T14:11:46.783Z,0.60
2022-08-01T14:12:51.163Z,0.80
2022-08-01T14:13:56.434Z,0.70
2022-08-01T14:15:00.825Z,0.60
2022-08-01T14:16:05.306Z,0.50
2022-08-01T14:17:09.704Z,0.70
2022-08-01T14:18:14.115Z,0.80
2022-08-01T14:19:19.378Z,0.70
2022-08-01T14:20:22.895Z,0.60
2022-08-01T14:21:27.289Z,0.70
2022-08-01T14:22:31.697Z,0.50
2022-08-01T14:23:36.087Z,0.50